Bloomfield, New Jersey
Current Conditions -  °F | °C
As of 7:51 AM on Saturday 25 Oct 2014 (Local Time) from KEWR Reporting Station
Few Clouds Few Clouds  
Wind Chill: 46°   Ceiling: Unl
Heat Index: 49°   Visibility: 10mi
Dew Point: 34°   Wind: 7mph
Humidity: 56%   Direction: 260°W
Pressure: 29.88"   Gusts: NA
Location:  40.79°N, 74.19°W
Report Text: KEWR 251151Z 26006KT 10SM FEW250 09/01 A2988 RMK AO2 SLP117 T00940011 10122 20089 51004
Loading
Personal Weather Stations






























Interactive Weather Map
Tropical Storm Tracking
New forecast layout! Learn more

10-Day Weather Forecast

Advertisements
Track Severe Weather on mobile